Time;durP1;ratioP1;P1;durP2;ratioP2;P2;SDS_P1;SDS_P2;PMS_P1;PMS_P2;Temp;Humidity;BMP_temperature;BMP_pressure;BME280_temperature;BME280_humidity;BME280_pressure;Samples;Min_cycle;Max_cycle;Signal;HPM_P1;HPM_P2
2024/02/23 00:01:44;;;;;;;1.67;0.60;;;9.30;99.90;;;;;;5015636;28;20024;-62
2024/02/23 00:04:10;;;;;;;1.45;0.40;;;9.30;99.90;;;;;;4970487;28;20119;-62
2024/02/23 00:06:36;;;;;;;1.35;0.38;;;9.20;99.90;;;;;;4969736;28;20492;-64
2024/02/23 00:09:01;;;;;;;1.45;0.20;;;9.10;99.90;;;;;;5006877;28;20492;-63
2024/02/23 00:11:28;;;;;;;0.20;0.20;;;9.00;99.90;;;;;;4964665;28;21683;-62
2024/02/23 00:13:54;;;;;;;1.10;0.28;;;8.90;99.90;;;;;;4984103;28;20021;-63
2024/02/23 00:16:19;;;;;;;0.40;0.30;;;8.80;99.90;;;;;;4986497;28;20101;-63
2024/02/23 00:18:45;;;;;;;0.30;0.30;;;8.70;99.90;;;;;;4981083;28;20052;-63
2024/02/23 00:21:10;;;;;;;0.40;0.38;;;8.70;99.90;;;;;;4956034;28;20032;-62
2024/02/23 00:23:36;;;;;;;1.88;0.40;;;8.60;99.90;;;;;;4942872;28;20694;-63
2024/02/23 00:26:02;;;;;;;0.43;0.43;;;8.60;99.90;;;;;;5003967;28;20029;-64
2024/02/23 00:28:27;;;;;;;0.70;0.47;;;8.60;99.90;;;;;;4984338;28;20036;-62
2024/02/23 00:30:53;;;;;;;0.45;0.30;;;8.50;99.90;;;;;;4971078;22;21004;-46
2024/02/23 00:33:18;;;;;;;1.48;0.55;;;8.50;99.90;;;;;;4986884;28;20017;-51
2024/02/23 00:35:44;;;;;;;1.77;0.80;;;8.50;99.90;;;;;;4961473;28;20029;-48
2024/02/23 00:38:09;;;;;;;3.70;1.00;;;8.60;99.90;;;;;;4965177;28;20052;-55
2024/02/23 00:40:35;;;;;;;2.85;0.60;;;8.50;99.90;;;;;;5023921;28;20179;-47
2024/02/23 00:43:02;;;;;;;1.40;0.50;;;8.50;99.90;;;;;;4961748;28;22302;-49
2024/02/23 00:45:28;;;;;;;0.77;0.38;;;8.50;99.90;;;;;;5005276;28;20028;-47
2024/02/23 00:47:53;;;;;;;1.30;0.73;;;8.40;99.90;;;;;;4967015;28;20090;-51
2024/02/23 00:50:19;;;;;;;1.27;0.70;;;8.40;99.90;;;;;;4984189;28;22281;-51
2024/02/23 00:52:45;;;;;;;0.57;0.55;;;8.20;99.90;;;;;;5031030;28;20034;-45
2024/02/23 00:55:13;;;;;;;0.95;0.40;;;7.90;99.90;;;;;;4985946;28;20025;-50
2024/02/23 00:57:39;;;;;;;0.40;0.32;;;7.70;99.90;;;;;;4976921;28;20020;-56
2024/02/23 01:00:06;;;;;;;1.83;0.35;;;7.50;99.90;;;;;;4984245;28;20388;-47
2024/02/23 01:02:35;;;;;;;0.95;0.40;;;7.30;99.90;;;;;;4973995;28;21181;-49
2024/02/23 01:05:00;;;;;;;0.20;0.20;;;7.30;99.90;;;;;;5020441;28;20086;-55
2024/02/23 01:07:26;;;;;;;0.20;0.13;;;7.20;99.90;;;;;;4987043;28;20544;-48
2024/02/23 01:09:52;;;;;;;0.25;0.20;;;7.10;99.90;;;;;;4961897;28;21448;-51
2024/02/23 01:12:17;;;;;;;0.47;0.20;;;7.10;99.90;;;;;;5000174;28;20024;-56
2024/02/23 01:14:43;;;;;;;0.45;0.40;;;7.00;99.90;;;;;;4980426;28;20218;-49
2024/02/23 01:17:08;;;;;;;0.10;0.10;;;7.00;99.90;;;;;;5002792;28;20024;-54
2024/02/23 01:19:34;;;;;;;0.30;0.20;;;7.00;99.90;;;;;;4998563;28;20461;-52
2024/02/23 01:22:00;;;;;;;0.45;0.30;;;6.90;99.90;;;;;;4971084;28;20108;-49
2024/02/23 01:24:27;;;;;;;1.85;0.30;;;6.90;99.90;;;;;;4993024;28;20025;-49
2024/02/23 01:26:55;;;;;;;0.17;0.15;;;6.80;99.90;;;;;;4966361;28;20028;-48
2024/02/23 01:29:20;;;;;;;0.28;0.10;;;6.90;99.90;;;;;;4970950;28;20853;-49
2024/02/23 01:31:46;;;;;;;0.13;0.13;;;6.80;99.90;;;;;;5039851;28;20081;-49
2024/02/23 01:34:11;;;;;;;0.08;0.00;;;6.80;99.90;;;;;;4958509;28;20028;-46
2024/02/23 01:36:38;;;;;;;0.10;0.00;;;6.80;99.90;;;;;;4984702;28;20539;-53
2024/02/23 01:39:04;;;;;;;0.00;0.00;;;6.80;99.90;;;;;;4978326;28;20105;-48
2024/02/23 01:41:30;;;;;;;0.00;0.00;;;6.70;99.90;;;;;;4970021;28;21269;-46
2024/02/23 01:43:55;;;;;;;0.00;0.00;;;6.70;99.90;;;;;;5056881;28;20032;-51
2024/02/23 01:46:21;;;;;;;0.52;0.10;;;6.70;99.90;;;;;;4988540;28;20451;-46
2024/02/23 01:48:47;;;;;;;0.55;0.10;;;6.70;99.90;;;;;;4981522;28;20033;-49
2024/02/23 01:51:13;;;;;;;0.00;0.00;;;6.70;99.90;;;;;;5010687;28;20027;-52
2024/02/23 01:53:38;;;;;;;0.47;0.20;;;6.70;99.90;;;;;;4989038;28;20024;-48
2024/02/23 01:56:05;;;;;;;0.00;0.00;;;6.70;99.90;;;;;;5027456;28;20594;-56
2024/02/23 01:58:34;;;;;;;0.20;0.10;;;6.70;99.90;;;;;;5000678;28;20047;-46
2024/02/23 02:00:59;;;;;;;0.00;0.00;;;6.70;99.90;;;;;;5016918;28;20118;-53
2024/02/23 02:03:25;;;;;;;0.05;0.00;;;6.70;99.90;;;;;;5043421;28;20119;-51
2024/02/23 02:05:52;;;;;;;0.00;0.00;;;6.70;99.90;;;;;;5011969;28;20059;-51
2024/02/23 02:08:18;;;;;;;0.00;0.00;;;6.60;99.90;;;;;;4977129;28;20081;-56
2024/02/23 02:10:45;;;;;;;0.10;0.10;;;6.60;99.90;;;;;;5007713;28;20020;-48
2024/02/23 02:13:10;;;;;;;0.30;0.05;;;6.60;99.90;;;;;;4996350;28;20097;-48
2024/02/23 02:15:36;;;;;;;0.00;0.00;;;6.60;99.90;;;;;;5026696;28;20123;-56
2024/02/23 02:18:02;;;;;;;0.10;0.00;;;6.50;99.90;;;;;;5039605;28;20116;-52
2024/02/23 02:20:31;;;;;;;0.00;0.00;;;6.50;99.90;;;;;;5018653;28;20028;-50
2024/02/23 02:22:57;;;;;;;0.10;0.00;;;6.40;99.90;;;;;;5053233;28;20036;-46
2024/02/23 02:25:22;;;;;;;0.43;0.00;;;6.40;99.90;;;;;;5016750;28;20055;-47
2024/02/23 02:27:48;;;;;;;0.00;0.00;;;6.40;99.90;;;;;;5007667;28;20017;-47
2024/02/23 02:30:14;;;;;;;0.10;0.00;;;6.40;99.90;;;;;;5045885;28;20024;-46
2024/02/23 02:32:39;;;;;;;0.00;0.00;;;6.30;99.90;;;;;;4983319;28;20036;-49
2024/02/23 02:35:05;;;;;;;0.00;0.00;;;6.30;99.90;;;;;;5007063;28;20500;-50
2024/02/23 02:37:31;;;;;;;0.10;0.10;;;6.30;99.90;;;;;;4995422;28;20262;-48
2024/02/23 02:39:56;;;;;;;0.05;0.05;;;6.20;99.90;;;;;;4997016;28;21914;-49
2024/02/23 02:42:22;;;;;;;0.20;0.00;;;6.20;99.90;;;;;;5055997;28;20040;-46
2024/02/23 02:44:47;;;;;;;0.15;0.00;;;6.10;99.90;;;;;;5006212;28;20031;-48
2024/02/23 02:47:13;;;;;;;0.00;0.00;;;6.10;99.90;;;;;;5027517;28;20026;-56
2024/02/23 02:49:40;;;;;;;0.00;0.00;;;6.00;99.90;;;;;;4998374;28;20086;-46
2024/02/23 02:52:06;;;;;;;0.00;0.00;;;6.00;99.90;;;;;;5003068;28;20725;-47
2024/02/23 02:54:31;;;;;;;0.40;0.00;;;5.90;99.90;;;;;;5041452;28;20028;-48
2024/02/23 02:56:57;;;;;;;1.35;0.00;;;5.90;99.90;;;;;;4977241;28;20038;-46
2024/02/23 02:59:23;;;;;;;1.05;0.05;;;5.80;99.90;;;;;;4988909;28;20043;-49
2024/02/23 03:01:49;;;;;;;0.00;0.00;;;5.80;99.90;;;;;;5035171;28;20032;-51
2024/02/23 03:04:14;;;;;;;0.05;0.05;;;5.80;99.90;;;;;;4979196;28;20519;-49
2024/02/23 03:06:40;;;;;;;0.52;0.10;;;5.80;99.90;;;;;;4993878;28;20078;-50
2024/02/23 03:09:06;;;;;;;0.17;0.10;;;5.70;99.90;;;;;;5013674;28;20017;-51
2024/02/23 03:11:32;;;;;;;1.13;0.08;;;5.70;99.90;;;;;;4977292;28;21570;-47
2024/02/23 03:13:57;;;;;;;0.00;0.00;;;5.60;99.90;;;;;;5021025;28;20024;-47
2024/02/23 03:16:25;;;;;;;1.25;0.10;;;5.60;99.90;;;;;;4995803;28;20021;-45
2024/02/23 03:18:51;;;;;;;0.10;0.10;;;5.60;99.90;;;;;;4997036;28;20103;-46
2024/02/23 03:21:17;;;;;;;1.45;0.30;;;5.60;99.90;;;;;;5054929;28;20597;-52
2024/02/23 03:23:42;;;;;;;0.35;0.15;;;5.60;99.90;;;;;;4991674;28;20024;-50
2024/02/23 03:26:08;;;;;;;1.55;0.30;;;5.60;99.90;;;;;;5001449;28;20033;-48
2024/02/23 03:28:34;;;;;;;0.38;0.20;;;5.50;99.90;;;;;;4952093;28;20523;-46
2024/02/23 03:31:03;;;;;;;1.00;0.08;;;5.50;99.90;;;;;;4980764;28;20027;-48
2024/02/23 03:33:28;;;;;;;0.22;0.20;;;5.50;99.90;;;;;;5033314;28;20038;-52
2024/02/23 03:35:55;;;;;;;1.13;0.17;;;5.50;99.90;;;;;;5013888;28;20028;-46
2024/02/23 03:38:20;;;;;;;0.77;0.50;;;5.50;99.90;;;;;;5022650;28;20032;-53
2024/02/23 03:40:46;;;;;;;0.57;0.20;;;5.50;99.90;;;;;;5058414;28;20028;-49
2024/02/23 03:43:12;;;;;;;0.30;0.17;;;5.50;99.90;;;;;;5015616;28;20101;-52
2024/02/23 03:45:37;;;;;;;1.55;0.30;;;5.50;99.90;;;;;;4996044;28;20111;-46
2024/02/23 03:48:04;;;;;;;0.20;0.00;;;5.60;99.90;;;;;;5017668;28;20048;-57
2024/02/23 03:50:30;;;;;;;0.40;0.28;;;5.50;99.90;;;;;;5016513;28;21385;-46
2024/02/23 03:52:56;;;;;;;0.17;0.17;;;5.50;99.90;;;;;;5051548;28;20032;-49
2024/02/23 03:55:21;;;;;;;1.17;0.32;;;5.40;99.90;;;;;;5015628;28;20020;-47
2024/02/23 03:57:47;;;;;;;0.85;0.20;;;5.40;99.90;;;;;;5007876;28;20028;-47
2024/02/23 04:00:14;;;;;;;0.40;0.20;;;5.30;99.90;;;;;;4980183;28;20052;-48
2024/02/23 04:02:39;;;;;;;1.30;0.35;;;5.30;99.90;;;;;;5053764;28;20032;-48
2024/02/23 04:05:06;;;;;;;0.20;0.10;;;5.30;99.90;;;;;;5032938;28;20020;-46
2024/02/23 04:07:31;;;;;;;0.47;0.20;;;5.20;99.90;;;;;;5022402;28;20416;-46
2024/02/23 04:09:57;;;;;;;1.35;0.22;;;5.20;99.90;;;;;;5021943;28;20032;-46
2024/02/23 04:12:23;;;;;;;0.63;0.35;;;5.20;99.90;;;;;;5019448;28;21778;-49
2024/02/23 04:14:48;;;;;;;1.50;0.22;;;5.10;99.90;;;;;;5047114;28;20024;-47
2024/02/23 04:17:15;;;;;;;0.10;0.10;;;5.10;99.90;;;;;;5027205;28;20035;-57
2024/02/23 04:19:41;;;;;;;1.00;0.40;;;5.00;99.90;;;;;;5021460;28;20599;-49
2024/02/23 04:22:09;;;;;;;2.28;0.55;;;5.00;99.90;;;;;;4991535;28;20032;-50
2024/02/23 04:24:36;;;;;;;0.55;0.55;;;5.00;99.90;;;;;;5001134;28;20031;-50
2024/02/23 04:27:02;;;;;;;0.40;0.35;;;4.90;99.90;;;;;;5007244;28;20029;-56
2024/02/23 04:29:27;;;;;;;1.45;0.57;;;4.90;99.90;;;;;;4984989;28;20021;-49
2024/02/23 04:31:53;;;;;;;3.67;0.70;;;4.90;99.90;;;;;;5045285;28;21578;-49
2024/02/23 04:34:18;;;;;;;2.10;0.47;;;4.90;99.90;;;;;;4992464;28;20115;-51
2024/02/23 04:36:44;;;;;;;2.35;0.52;;;4.90;99.90;;;;;;5012681;28;20020;-46
2024/02/23 04:39:09;;;;;;;1.08;0.50;;;4.90;99.90;;;;;;5008796;28;20732;-49
2024/02/23 04:41:35;;;;;;;2.22;0.50;;;5.00;99.90;;;;;;5037936;28;21197;-46
2024/02/23 04:44:01;;;;;;;2.58;0.70;;;5.00;99.90;;;;;;5041137;28;20027;-46
2024/02/23 04:46:27;;;;;;;1.75;0.65;;;5.00;99.90;;;;;;5032144;28;20069;-46
2024/02/23 04:48:53;;;;;;;0.80;0.50;;;4.90;99.90;;;;;;5016969;28;20582;-47
2024/02/23 04:51:19;;;;;;;0.82;0.65;;;4.90;99.90;;;;;;4992033;28;20046;-48
2024/02/23 04:53:44;;;;;;;1.85;0.70;;;4.90;99.90;;;;;;5012815;28;20044;-47
2024/02/23 04:56:10;;;;;;;2.65;0.88;;;5.00;99.90;;;;;;5033904;28;20535;-55
2024/02/23 04:58:37;;;;;;;1.92;0.80;;;4.90;99.90;;;;;;4953037;28;20131;-54
2024/02/23 05:01:03;;;;;;;0.70;0.70;;;4.90;99.90;;;;;;5020510;28;20123;-45
2024/02/23 05:03:29;;;;;;;2.67;0.82;;;4.90;99.90;;;;;;4983640;28;20017;-49
2024/02/23 05:05:54;;;;;;;2.45;0.80;;;4.90;99.90;;;;;;5012163;28;20074;-48
2024/02/23 05:08:20;;;;;;;0.70;0.63;;;4.90;99.90;;;;;;4998421;28;20771;-52
2024/02/23 05:10:47;;;;;;;1.65;0.55;;;4.90;99.90;;;;;;5038678;28;20353;-48
2024/02/23 05:13:13;;;;;;;1.83;0.90;;;5.00;99.90;;;;;;5016391;28;20163;-48
2024/02/23 05:15:38;;;;;;;2.10;0.75;;;5.00;99.90;;;;;;5027575;28;20099;-47
2024/02/23 05:18:04;;;;;;;2.53;1.00;;;5.00;99.90;;;;;;4988434;28;20027;-55
2024/02/23 05:20:30;;;;;;;2.38;1.27;;;5.00;99.90;;;;;;5037016;28;20120;-48
2024/02/23 05:22:55;;;;;;;4.90;0.90;;;5.10;99.90;;;;;;5031538;28;21681;-48
2024/02/23 05:25:21;;;;;;;3.17;1.20;;;5.10;99.90;;;;;;5034829;28;20093;-47
2024/02/23 05:27:46;;;;;;;1.73;1.35;;;5.10;99.90;;;;;;5000487;28;20078;-49
2024/02/23 05:30:13;;;;;;;2.05;1.00;;;5.10;99.90;;;;;;4975188;28;20024;-51
2024/02/23 05:32:38;;;;;;;1.48;1.08;;;5.10;99.90;;;;;;5044521;28;20165;-50
2024/02/23 05:35:04;;;;;;;4.03;1.20;;;5.00;99.90;;;;;;5011920;28;20499;-49
2024/02/23 05:37:30;;;;;;;1.58;1.15;;;5.00;99.90;;;;;;5004984;28;20032;-48
2024/02/23 05:39:55;;;;;;;2.08;0.90;;;5.00;99.90;;;;;;4984203;28;20032;-46
2024/02/23 05:42:21;;;;;;;5.40;1.45;;;5.00;99.90;;;;;;4981681;28;21766;-50
2024/02/23 05:44:48;;;;;;;3.67;1.02;;;4.90;99.90;;;;;;5050587;28;20500;-51
2024/02/23 05:47:14;;;;;;;1.92;1.05;;;4.90;99.90;;;;;;5006637;28;20392;-53
2024/02/23 05:49:40;;;;;;;2.22;1.38;;;4.90;99.90;;;;;;5020573;28;20081;-47
2024/02/23 05:52:05;;;;;;;2.53;1.50;;;4.80;99.90;;;;;;5008865;28;20023;-51
2024/02/23 05:54:31;;;;;;;2.13;1.20;;;4.80;99.90;;;;;;4948626;28;20036;-49
2024/02/23 05:56:56;;;;;;;1.60;1.30;;;4.80;99.90;;;;;;5050333;28;20032;-51
2024/02/23 05:59:22;;;;;;;1.83;1.60;;;4.70;99.90;;;;;;4953411;28;20020;-50
2024/02/23 06:01:47;;;;;;;5.35;1.98;;;4.80;99.90;;;;;;5028638;28;20024;-49
2024/02/23 06:04:13;;;;;;;1.70;1.60;;;4.80;99.90;;;;;;5003654;28;20055;-51
2024/02/23 06:06:43;;;;;;;2.75;1.80;;;4.80;99.90;;;;;;5010527;28;20028;-51
2024/02/23 06:09:09;;;;;;;3.08;1.70;;;4.80;99.90;;;;;;4993446;28;20020;-46
2024/02/23 06:11:35;;;;;;;3.70;1.70;;;4.70;99.90;;;;;;5021785;28;20032;-50
2024/02/23 06:14:00;;;;;;;2.85;1.35;;;4.80;99.90;;;;;;5012348;28;20020;-46
2024/02/23 06:16:26;;;;;;;1.98;1.20;;;4.70;99.90;;;;;;5033704;28;20024;-47
2024/02/23 06:18:51;;;;;;;3.03;1.08;;;4.80;99.90;;;;;;4980257;28;20032;-49
2024/02/23 06:21:18;;;;;;;4.07;1.25;;;4.80;99.90;;;;;;4997507;28;20032;-54
2024/02/23 06:23:44;;;;;;;3.75;0.90;;;4.70;99.90;;;;;;5025578;28;20727;-50
2024/02/23 06:26:10;;;;;;;2.72;1.20;;;4.70;99.90;;;;;;5015481;28;20051;-52
2024/02/23 06:28:37;;;;;;;5.75;0.90;;;4.70;99.90;;;;;;4979591;28;20024;-56
2024/02/23 06:31:03;;;;;;;1.40;1.20;;;4.80;99.90;;;;;;5013707;28;20032;-49
2024/02/23 06:33:30;;;;;;;2.28;0.70;;;4.70;99.90;;;;;;4992367;28;20019;-49
2024/02/23 06:35:56;;;;;;;4.53;1.90;;;4.80;99.90;;;;;;5032918;28;20248;-47
2024/02/23 06:38:21;;;;;;;2.45;1.60;;;4.80;99.90;;;;;;5025368;28;20051;-52
2024/02/23 06:40:47;;;;;;;3.15;2.15;;;4.80;99.90;;;;;;5010092;28;20095;-48
2024/02/23 06:43:13;;;;;;;3.42;1.35;;;4.80;99.90;;;;;;5019868;28;20024;-51
2024/02/23 06:45:38;;;;;;;2.78;1.58;;;4.80;99.90;;;;;;4972003;28;20052;-49
2024/02/23 06:48:05;;;;;;;4.97;1.75;;;4.80;99.90;;;;;;4992569;28;20028;-56
2024/02/23 06:50:31;;;;;;;2.78;1.40;;;4.80;99.90;;;;;;4985913;28;20047;-46
2024/02/23 06:52:56;;;;;;;2.97;0.95;;;4.80;99.90;;;;;;5006393;28;21422;-48
2024/02/23 06:55:22;;;;;;;1.88;1.08;;;4.80;99.90;;;;;;5018063;28;20028;-51
2024/02/23 06:57:48;;;;;;;3.95;1.58;;;4.80;99.90;;;;;;4988672;28;20114;-48
2024/02/23 07:00:14;;;;;;;1.65;1.35;;;4.90;99.90;;;;;;5005058;28;20020;-51
2024/02/23 07:02:40;;;;;;;2.95;1.60;;;4.90;99.90;;;;;;5006956;28;20030;-50
2024/02/23 07:05:06;;;;;;;5.65;1.70;;;4.90;99.90;;;;;;5011015;28;20028;-51
2024/02/23 07:07:40;;;;;;;2.60;1.63;;;4.90;99.90;;;;;;4986545;28;20066;-50
2024/02/23 07:10:06;;;;;;;4.57;2.30;;;4.90;99.90;;;;;;5020839;28;20115;-51
2024/02/23 07:12:31;;;;;;;2.33;1.77;;;4.90;99.90;;;;;;4978186;28;20096;-49
2024/02/23 07:14:57;;;;;;;4.85;2.53;;;4.90;99.90;;;;;;5021477;28;20191;-51
2024/02/23 07:17:23;;;;;;;6.30;3.13;;;4.90;99.90;;;;;;4998728;28;20092;-48
2024/02/23 07:19:50;;;;;;;6.97;3.97;;;5.00;99.90;;;;;;5026508;28;20464;-52
2024/02/23 07:22:17;;;;;;;5.03;3.20;;;5.00;99.90;;;;;;5012075;28;20072;-47
2024/02/23 07:24:43;;;;;;;12.82;7.18;;;5.00;99.90;;;;;;4983760;28;20078;-48
2024/02/23 07:27:09;;;;;;;12.48;7.05;;;5.00;99.90;;;;;;4991694;28;20020;-56
2024/02/23 07:29:35;;;;;;;10.45;5.55;;;5.00;99.90;;;;;;5044221;28;20024;-50
2024/02/23 07:32:00;;;;;;;13.65;4.88;;;5.00;99.90;;;;;;4999827;28;20468;-51
2024/02/23 07:34:26;;;;;;;4.53;3.35;;;5.00;99.90;;;;;;5021924;28;20224;-50
2024/02/23 07:36:52;;;;;;;3.55;2.13;;;5.00;99.90;;;;;;4980830;28;20016;-50
2024/02/23 07:39:18;;;;;;;4.00;1.60;;;5.00;99.90;;;;;;4969696;28;20107;-51
2024/02/23 07:41:44;;;;;;;4.65;2.40;;;5.00;99.90;;;;;;5021878;28;20020;-52
2024/02/23 07:44:10;;;;;;;6.65;3.45;;;5.00;99.90;;;;;;4997960;28;20032;-50
2024/02/23 07:46:36;;;;;;;3.70;2.03;;;5.00;99.90;;;;;;4997964;28;20107;-56
2024/02/23 07:49:02;;;;;;;9.88;4.95;;;5.00;99.90;;;;;;4996552;28;20036;-51
2024/02/23 07:51:28;;;;;;;16.77;6.72;;;5.10;99.90;;;;;;5012434;28;20036;-47
2024/02/23 07:53:54;;;;;;;14.05;6.20;;;5.10;99.90;;;;;;5041865;28;20028;-48
2024/02/23 07:56:20;;;;;;;9.30;4.63;;;5.10;99.90;;;;;;4981560;28;20024;-50
2024/02/23 07:58:46;;;;;;;15.02;6.63;;;5.10;99.90;;;;;;4998080;28;20381;-50
2024/02/23 08:01:13;;;;;;;13.90;4.72;;;5.10;99.90;;;;;;5025472;28;20024;-51
2024/02/23 08:03:39;;;;;;;12.32;5.38;;;5.10;99.90;;;;;;5011282;28;20494;-49
2024/02/23 08:06:04;;;;;;;11.13;6.22;;;5.10;99.90;;;;;;5042862;28;20032;-56
2024/02/23 08:08:34;;;;;;;8.80;5.50;;;5.20;99.90;;;;;;5025769;28;20576;-47
2024/02/23 08:11:00;;;;;;;14.32;6.13;;;5.20;99.90;;;;;;4993628;28;21587;-48
2024/02/23 08:13:26;;;;;;;10.55;5.70;;;5.20;99.90;;;;;;5031933;28;20740;-48
2024/02/23 08:15:51;;;;;;;7.47;4.57;;;5.20;99.90;;;;;;5004493;28;20043;-50
2024/02/23 08:18:17;;;;;;;10.82;6.45;;;5.30;99.90;;;;;;5017498;28;20040;-52
2024/02/23 08:20:43;;;;;;;6.97;4.32;;;5.30;99.90;;;;;;5033792;28;20024;-49
2024/02/23 08:23:09;;;;;;;9.32;5.32;;;5.30;99.90;;;;;;5006358;28;20033;-49
2024/02/23 08:25:36;;;;;;;8.45;4.30;;;5.30;99.90;;;;;;5028581;28;20028;-57
2024/02/23 08:28:01;;;;;;;6.63;4.45;;;5.40;99.90;;;;;;4978703;28;20024;-54
2024/02/23 08:30:27;;;;;;;3.30;2.38;;;5.50;99.90;;;;;;5001000;28;22088;-49
2024/02/23 08:32:53;;;;;;;7.10;3.25;;;5.50;99.90;;;;;;5063320;28;20051;-47
2024/02/23 08:35:18;;;;;;;7.70;4.18;;;5.50;99.90;;;;;;5015920;28;20413;-49
2024/02/23 08:37:44;;;;;;;7.70;3.42;;;5.60;99.90;;;;;;4987521;28;21344;-52
2024/02/23 08:40:11;;;;;;;5.13;3.20;;;5.80;99.90;;;;;;5039840;28;20056;-51
2024/02/23 08:42:37;;;;;;;6.78;2.28;;;5.80;99.90;;;;;;4998577;28;20521;-49
2024/02/23 08:45:04;;;;;;;3.05;2.55;;;6.00;99.90;;;;;;5025216;28;20085;-57
2024/02/23 08:47:32;;;;;;;6.85;2.38;;;6.00;99.90;;;;;;5016790;28;21353;-48
2024/02/23 08:49:58;;;;;;;9.13;2.78;;;6.10;99.90;;;;;;5002504;28;20028;-46
2024/02/23 08:52:23;;;;;;;4.75;2.33;;;6.10;99.90;;;;;;5026700;28;20668;-47
2024/02/23 08:54:49;;;;;;;7.82;2.47;;;6.00;99.90;;;;;;4977541;28;20032;-47
2024/02/23 08:57:19;;;;;;;5.60;3.25;;;6.10;99.90;;;;;;4963135;28;20035;-50
2024/02/23 08:59:45;;;;;;;2.63;1.65;;;6.00;99.90;;;;;;5037151;28;20020;-49
2024/02/23 09:02:10;;;;;;;6.80;2.42;;;6.00;99.90;;;;;;5003950;28;20044;-51
2024/02/23 09:04:36;;;;;;;3.22;2.20;;;6.00;99.90;;;;;;5008559;28;20400;-57
2024/02/23 09:07:02;;;;;;;5.88;1.42;;;6.10;99.90;;;;;;4960865;28;20016;-51
2024/02/23 09:09:28;;;;;;;4.63;2.38;;;6.10;99.90;;;;;;4974439;28;21548;-50
2024/02/23 09:11:53;;;;;;;4.28;2.42;;;6.10;99.90;;;;;;5031882;28;20118;-51
2024/02/23 09:14:19;;;;;;;3.17;1.73;;;6.10;99.90;;;;;;4974053;28;20044;-50
2024/02/23 09:16:46;;;;;;;2.75;1.35;;;6.20;99.90;;;;;;4988751;28;20016;-51
2024/02/23 09:19:12;;;;;;;3.95;1.35;;;6.20;99.90;;;;;;5019413;28;20073;-46
2024/02/23 09:21:37;;;;;;;3.25;2.05;;;6.20;99.90;;;;;;4969904;28;20024;-48
2024/02/23 09:24:04;;;;;;;4.80;1.63;;;6.30;99.90;;;;;;5025864;28;20032;-57
2024/02/23 09:26:29;;;;;;;2.00;1.38;;;6.30;99.90;;;;;;4973304;28;20032;-48
2024/02/23 09:28:55;;;;;;;1.95;1.75;;;6.40;99.90;;;;;;4998848;28;21247;-48
2024/02/23 09:31:20;;;;;;;2.28;1.70;;;6.40;99.90;;;;;;5017317;28;20025;-50
2024/02/23 09:33:46;;;;;;;3.03;1.85;;;6.50;99.90;;;;;;4982522;28;20119;-51
2024/02/23 09:36:12;;;;;;;2.38;1.60;;;6.50;99.90;;;;;;4960089;28;20081;-55
2024/02/23 09:38:38;;;;;;;4.82;1.42;;;6.60;99.90;;;;;;5002423;28;20039;-49
2024/02/23 09:41:04;;;;;;;2.38;1.25;;;6.70;99.90;;;;;;4986358;28;20032;-48
2024/02/23 09:43:31;;;;;;;5.93;1.85;;;6.80;99.90;;;;;;5015980;28;20065;-48
2024/02/23 09:45:58;;;;;;;2.67;1.50;;;6.80;99.90;;;;;;4981806;28;20115;-50
2024/02/23 09:48:24;;;;;;;4.63;1.60;;;6.90;99.90;;;;;;4990987;28;21435;-48
2024/02/23 09:50:51;;;;;;;4.25;1.63;;;6.90;99.90;;;;;;5054653;28;20103;-49
2024/02/23 09:53:19;;;;;;;4.47;1.73;;;7.00;99.90;;;;;;4966273;28;20573;-55
2024/02/23 09:55:45;;;;;;;5.10;1.60;;;7.00;99.90;;;;;;4986338;28;20035;-50
2024/02/23 09:58:13;;;;;;;4.95;1.77;;;7.00;99.90;;;;;;5012978;28;20028;-50
2024/02/23 10:00:39;;;;;;;4.05;2.28;;;7.00;99.90;;;;;;4985679;28;20522;-51
2024/02/23 10:03:06;;;;;;;4.35;1.63;;;7.00;99.90;;;;;;5031894;28;20028;-58
2024/02/23 10:05:31;;;;;;;3.22;1.30;;;7.00;99.90;;;;;;5009033;28;20067;-53
2024/02/23 10:07:58;;;;;;;3.60;2.08;;;7.00;99.90;;;;;;4941453;28;21619;-48
2024/02/23 10:10:33;;;;;;;4.32;1.50;;;7.10;99.90;;;;;;5013537;28;20099;-49
2024/02/23 10:13:00;;;;;;;3.97;1.85;;;7.20;99.90;;;;;;4960484;28;20111;-48
2024/02/23 10:15:28;;;;;;;3.13;1.48;;;7.20;99.90;;;;;;4983360;28;21233;-50
2024/02/23 10:17:54;;;;;;;2.45;1.23;;;7.30;99.90;;;;;;5049317;28;20020;-54
2024/02/23 10:20:20;;;;;;;2.38;1.42;;;7.30;99.90;;;;;;4982500;28;20538;-48
2024/02/23 10:22:46;;;;;;;3.88;1.35;;;7.30;99.90;;;;;;4956934;28;20028;-57
2024/02/23 10:25:12;;;;;;;5.65;2.85;;;7.30;99.90;;;;;;5012030;28;20032;-48
2024/02/23 10:27:37;;;;;;;5.18;2.03;;;7.30;99.90;;;;;;4990050;28;20035;-49
2024/02/23 10:30:03;;;;;;;6.68;2.58;;;7.40;99.90;;;;;;5049414;28;20032;-57
2024/02/23 10:32:30;;;;;;;8.05;2.30;;;7.50;99.90;;;;;;4994930;28;20109;-48
2024/02/23 10:35:00;;;;;;;3.05;1.58;;;7.60;99.90;;;;;;4968398;28;21552;-47
2024/02/23 10:37:28;;;;;;;1.60;1.20;;;7.70;99.90;;;;;;5010917;28;20507;-48
2024/02/23 10:39:58;;;;;;;2.53;1.45;;;7.80;99.90;;;;;;5033713;28;20431;-50
2024/02/23 10:42:24;;;;;;;2.88;1.08;;;7.80;99.90;;;;;;5010945;28;20507;-48
2024/02/23 10:44:52;;;;;;;2.70;1.40;;;7.80;99.90;;;;;;5057881;28;20110;-50
2024/02/23 10:47:19;;;;;;;2.10;1.38;;;7.80;99.90;;;;;;5009874;28;20028;-55
2024/02/23 10:49:46;;;;;;;6.25;1.50;;;7.80;99.90;;;;;;4998075;28;20106;-57
2024/02/23 10:52:15;;;;;;;5.88;1.35;;;7.90;99.90;;;;;;5027396;28;20028;-46
2024/02/23 10:54:41;;;;;;;3.30;1.50;;;7.90;99.90;;;;;;5018301;28;20085;-51
2024/02/23 10:57:07;;;;;;;2.25;1.42;;;8.00;99.90;;;;;;4992647;28;20032;-46
2024/02/23 10:59:33;;;;;;;3.38;1.48;;;8.10;99.90;;;;;;4981311;28;20100;-49
2024/02/23 11:02:00;;;;;;;3.08;1.50;;;8.10;99.90;;;;;;4993001;28;22445;-52
2024/02/23 11:04:26;;;;;;;3.25;1.75;;;8.00;99.90;;;;;;5039403;28;20059;-50
2024/02/23 11:06:54;;;;;;;4.15;1.30;;;7.90;99.90;;;;;;4979224;28;20119;-46
2024/02/23 11:09:26;;;;;;;3.85;1.10;;;7.90;99.90;;;;;;4999171;28;20051;-46
2024/02/23 11:11:58;;;;;;;4.30;1.15;;;7.80;99.90;;;;;;5031594;28;20028;-47
2024/02/23 11:14:32;;;;;;;4.43;1.52;;;7.80;99.90;;;;;;4980177;28;20020;-49
2024/02/23 11:16:58;;;;;;;3.70;1.38;;;7.80;99.90;;;;;;5010791;28;21647;-50
2024/02/23 11:19:33;;;;;;;4.70;1.40;;;7.80;99.90;;;;;;5034313;28;22407;-51
2024/02/23 11:21:59;;;;;;;2.78;1.10;;;7.80;99.90;;;;;;5024949;28;20069;-51
2024/02/23 11:24:28;;;;;;;3.92;1.48;;;7.80;99.90;;;;;;5002446;28;20032;-49
2024/02/23 11:26:58;;;;;;;3.63;0.95;;;7.90;99.90;;;;;;5019686;28;20055;-49
2024/02/23 11:29:29;;;;;;;4.75;0.98;;;8.00;99.90;;;;;;4963179;28;20540;-50
2024/02/23 11:32:00;;;;;;;2.45;0.90;;;8.00;99.90;;;;;;4998518;28;20032;-49
2024/02/23 11:34:27;;;;;;;1.33;1.20;;;8.00;99.90;;;;;;5045171;28;20028;-51
2024/02/23 11:36:53;;;;;;;3.05;1.27;;;8.10;99.90;;;;;;5040935;28;22292;-49
2024/02/23 11:39:20;;;;;;;3.63;1.35;;;8.10;99.90;;;;;;4995340;28;20020;-51
2024/02/23 11:41:51;;;;;;;5.07;1.02;;;8.10;99.90;;;;;;5032774;28;20020;-50
2024/02/23 11:44:17;;;;;;;1.10;0.77;;;8.10;99.90;;;;;;4985460;28;20028;-49
2024/02/23 11:46:43;;;;;;;2.25;1.00;;;8.00;99.90;;;;;;5015927;28;20047;-52
2024/02/23 11:49:09;;;;;;;3.60;0.90;;;8.00;99.90;;;;;;5027869;28;20028;-49
2024/02/23 11:51:35;;;;;;;2.67;0.93;;;8.00;99.90;;;;;;4998854;28;20017;-48
2024/02/23 11:54:00;;;;;;;4.57;0.80;;;8.00;99.90;;;;;;5031304;28;20025;-48
2024/02/23 11:56:27;;;;;;;3.35;1.30;;;8.00;99.90;;;;;;4977027;28;20054;-47
2024/02/23 11:58:54;;;;;;;2.30;0.90;;;8.10;99.90;;;;;;4951802;28;20093;-46
2024/02/23 12:01:20;;;;;;;1.48;0.68;;;8.20;99.90;;;;;;5009623;28;20023;-49
2024/02/23 12:03:46;;;;;;;0.77;0.55;;;8.20;99.90;;;;;;5019679;28;20025;-49
2024/02/23 12:06:15;;;;;;;1.05;0.80;;;8.30;99.90;;;;;;5034067;28;20024;-56
2024/02/23 12:08:41;;;;;;;4.18;0.95;;;8.30;99.90;;;;;;5059224;28;20031;-51
2024/02/23 12:11:08;;;;;;;2.28;0.80;;;8.40;99.90;;;;;;5021508;28;20051;-48
2024/02/23 12:13:37;;;;;;;2.58;0.90;;;8.40;99.90;;;;;;5044287;28;20548;-52
2024/02/23 12:16:03;;;;;;;2.92;0.70;;;8.40;99.90;;;;;;5038816;28;20479;-57
2024/02/23 12:18:32;;;;;;;2.60;0.85;;;8.40;99.90;;;;;;5027058;28;20492;-50
2024/02/23 12:21:02;;;;;;;1.50;0.73;;;8.40;99.90;;;;;;5049410;28;20047;-52
2024/02/23 12:23:37;;;;;;;1.85;0.55;;;8.40;99.90;;;;;;5019697;28;20049;-50
2024/02/23 12:26:04;;;;;;;1.17;0.60;;;8.40;99.90;;;;;;5024316;28;20574;-48
2024/02/23 12:28:29;;;;;;;1.80;0.75;;;8.40;99.90;;;;;;5013242;28;20024;-47
2024/02/23 12:31:02;;;;;;;1.02;0.80;;;8.50;99.90;;;;;;5010987;23;20051;-85
2024/02/23 12:33:32;;;;;;;3.30;0.90;;;8.50;99.90;;;;;;4955671;28;20077;-82
2024/02/23 12:35:58;;;;;;;0.90;0.57;;;8.50;99.90;;;;;;4981898;28;20399;-83
2024/02/23 12:38:24;;;;;;;0.70;0.43;;;8.40;99.90;;;;;;4913760;28;20032;-84
2024/02/23 12:40:50;;;;;;;3.05;0.80;;;8.40;99.90;;;;;;4907302;28;20038;-84
2024/02/23 12:43:16;;;;;;;2.05;0.93;;;8.30;99.90;;;;;;4904005;28;20092;-83
2024/02/23 12:45:44;;;;;;;1.27;0.68;;;8.20;99.90;;;;;;4974612;28;20038;-84
2024/02/23 12:48:10;;;;;;;2.33;0.60;;;8.20;99.90;;;;;;4938396;28;20029;-84
2024/02/23 12:50:36;;;;;;;1.95;0.70;;;8.10;99.90;;;;;;4925911;28;20045;-83
2024/02/23 12:53:02;;;;;;;1.55;0.40;;;8.10;99.90;;;;;;4950343;28;20108;-83